Time;durP1;ratioP1;P1;durP2;ratioP2;P2;SDS_P1;SDS_P2;PMS_P1;PMS_P2;Temp;Humidity;BMP_temperature;BMP_pressure;BME280_temperature;BME280_humidity;BME280_pressure;Samples;Min_cycle;Max_cycle;Signal;HPM_P1;HPM_P2
2021/12/15 00:00:12;;;;;;;53.20;20.70;;;7.70;99.90;;;;;;5080794;28;20401;-74
2021/12/15 00:02:39;;;;;;;199.98;105.25;;;7.70;99.90;;;;;;5079891;28;20040;-76
2021/12/15 00:05:08;;;;;;;68.22;26.63;;;7.80;99.90;;;;;;5081373;28;20408;-75
2021/12/15 00:07:37;;;;;;;48.70;18.95;;;7.90;99.90;;;;;;5080777;28;20056;-74
2021/12/15 00:10:06;;;;;;;49.53;20.45;;;7.80;99.90;;;;;;5080717;28;20056;-74
2021/12/15 00:12:33;;;;;;;58.28;22.02;;;7.80;99.90;;;;;;5078232;28;20048;-77
2021/12/15 00:15:00;;;;;;;50.22;21.38;;;7.70;99.90;;;;;;5073360;28;20041;-78
2021/12/15 00:17:27;;;;;;;48.75;20.70;;;7.70;99.90;;;;;;5073556;28;20105;-77
2021/12/15 00:19:54;;;;;;;47.83;17.48;;;7.70;99.90;;;;;;5072672;28;20079;-78
2021/12/15 00:22:22;;;;;;;52.92;21.10;;;7.70;99.90;;;;;;5072947;28;20129;-76
2021/12/15 00:24:50;;;;;;;62.13;20.92;;;7.70;99.90;;;;;;5072705;28;20085;-74
2021/12/15 00:27:17;;;;;;;58.47;18.45;;;7.70;99.90;;;;;;5074372;28;20111;-74
2021/12/15 00:29:44;;;;;;;65.95;21.92;;;7.70;99.90;;;;;;5074240;28;20052;-75
2021/12/15 00:32:11;;;;;;;63.30;22.90;;;7.70;99.90;;;;;;5072998;28;20583;-76
2021/12/15 00:34:40;;;;;;;57.00;19.67;;;7.70;99.90;;;;;;5072315;28;20460;-76
2021/12/15 00:37:08;;;;;;;57.13;21.95;;;7.70;99.90;;;;;;5073061;28;20051;-77
2021/12/15 00:39:35;;;;;;;58.25;21.02;;;7.70;99.90;;;;;;5073258;28;20097;-75
2021/12/15 00:42:05;;;;;;;58.33;21.58;;;7.70;99.90;;;;;;5073056;28;20466;-76
2021/12/15 00:44:32;;;;;;;53.63;20.38;;;7.60;99.90;;;;;;5072346;28;20048;-75
2021/12/15 00:46:59;;;;;;;62.05;22.50;;;7.70;99.90;;;;;;5072341;28;20102;-75
2021/12/15 00:49:26;;;;;;;63.03;22.58;;;7.60;99.90;;;;;;5072763;28;20048;-75
2021/12/15 00:51:54;;;;;;;64.20;25.38;;;7.70;99.90;;;;;;5072821;28;20076;-76
2021/12/15 00:54:22;;;;;;;59.58;23.30;;;7.70;99.90;;;;;;5072810;28;20084;-77
2021/12/15 00:56:49;;;;;;;62.97;22.83;;;7.60;99.90;;;;;;5072565;28;20091;-76
2021/12/15 00:59:18;;;;;;;62.25;22.38;;;7.60;99.90;;;;;;5072343;28;20586;-77
2021/12/15 01:01:45;;;;;;;63.13;22.92;;;7.60;99.90;;;;;;5072312;28;20084;-77
2021/12/15 01:04:15;;;;;;;52.30;21.35;;;7.60;99.90;;;;;;5071636;28;20124;-76
2021/12/15 01:06:44;;;;;;;66.15;24.15;;;7.70;99.90;;;;;;5071826;28;20127;-76
2021/12/15 01:09:16;;;;;;;57.65;22.05;;;7.70;99.90;;;;;;5072125;28;20059;-76
2021/12/15 01:12:06;;;;;;;55.33;21.52;;;7.60;99.90;;;;;;5071950;28;20055;-76
2021/12/15 01:20:11;;;;;;;61.72;21.85;;;7.60;99.90;;;;;;5071435;28;20055;-77
2021/12/15 01:22:41;;;;;;;60.58;22.52;;;7.50;99.90;;;;;;5071929;28;20139;-77
2021/12/15 01:25:14;;;;;;;49.08;19.55;;;7.60;99.90;;;;;;5071093;28;20570;-77
2021/12/15 01:27:42;;;;;;;66.05;21.45;;;7.60;99.90;;;;;;5071677;28;20131;-77
2021/12/15 01:30:13;;;;;;;58.42;21.50;;;7.60;99.90;;;;;;5071775;28;20044;-78
2021/12/15 01:32:40;;;;;;;;;;;7.50;99.90;;;;;;5071922;28;20040;-78
2021/12/15 01:35:09;;;;;;;46.65;18.13;;;7.50;99.90;;;;;;5071117;28;19993;-78
2021/12/15 01:37:36;;;;;;;57.22;19.52;;;7.50;99.90;;;;;;5071791;28;20083;-78
2021/12/15 01:40:04;;;;;;;53.75;20.73;;;7.50;99.90;;;;;;5071308;28;20044;-78
2021/12/15 01:42:34;;;;;;;56.97;21.42;;;7.50;99.90;;;;;;5071476;28;20497;-78
2021/12/15 01:47:47;;;;;;;56.72;19.35;;;7.50;99.90;;;;;;5071456;28;20569;-77
2021/12/15 01:50:14;;;;;;;42.75;20.08;;;7.50;99.90;;;;;;5071381;28;20041;-77
2021/12/15 01:52:43;;;;;;;49.42;23.30;;;7.50;99.90;;;;;;5071442;28;20041;-75
2021/12/15 01:55:13;;;;;;;53.80;20.98;;;7.50;99.90;;;;;;5071012;28;20105;-74
2021/12/15 01:57:42;;;;;;;47.20;17.25;;;7.50;99.90;;;;;;5071709;28;20104;-75
2021/12/15 02:00:13;;;;;;;54.88;22.45;;;7.50;99.90;;;;;;5071274;28;20189;-75
2021/12/15 02:02:40;;;;;;;;;;;7.50;99.90;;;;;;5071743;28;20044;-75
2021/12/15 02:05:10;;;;;;;50.10;18.33;;;7.50;99.90;;;;;;5070693;28;19924;-75
2021/12/15 02:07:38;;;;;;;55.42;20.38;;;7.40;99.90;;;;;;5071123;28;20551;-77
2021/12/15 02:10:06;;;;;;;59.53;23.33;;;7.40;99.90;;;;;;5069951;28;20122;-77
2021/12/15 02:12:38;;;;;;;60.03;21.02;;;7.40;99.90;;;;;;5071060;28;20072;-77
2021/12/15 02:15:10;;;;;;;55.80;20.27;;;7.50;99.90;;;;;;5070777;28;20048;-77
2021/12/15 02:17:37;;;;;;;51.47;20.52;;;7.50;99.90;;;;;;5071201;28;20083;-77
2021/12/15 02:20:06;;;;;;;59.05;22.08;;;7.40;99.90;;;;;;5071211;28;20143;-76
2021/12/15 02:22:35;;;;;;;44.35;17.10;;;7.40;99.90;;;;;;5071521;28;20455;-76
2021/12/15 02:25:05;;;;;;;57.20;21.35;;;7.50;99.90;;;;;;5070750;28;20044;-75
2021/12/15 02:27:35;;;;;;;40.83;18.87;;;7.50;99.90;;;;;;5071209;28;20079;-76
2021/12/15 02:30:19;;;;;;;49.58;20.45;;;7.50;99.90;;;;;;5071019;28;20056;-76
2021/12/15 02:32:59;;;;;;;51.40;17.98;;;7.50;99.90;;;;;;5071440;28;20060;-76
2021/12/15 02:38:12;;;;;;;50.25;21.23;;;7.50;99.90;;;;;;5071155;28;20047;-76
2021/12/15 02:40:39;;;;;;;53.03;19.13;;;7.60;99.90;;;;;;5070949;28;20466;-78
2021/12/15 02:43:07;;;;;;;44.15;18.63;;;7.50;99.90;;;;;;5070900;28;20045;-77
2021/12/15 02:45:34;;;;;;;50.50;19.38;;;7.50;99.90;;;;;;5073797;28;20048;-78
2021/12/15 02:48:02;;;;;;;47.88;20.40;;;7.50;99.90;;;;;;5074931;28;20072;-76
2021/12/15 02:50:30;;;;;;;52.50;20.10;;;7.50;99.90;;;;;;5074433;28;20045;-76
2021/12/15 02:52:59;;;;;;;57.75;20.17;;;7.50;99.90;;;;;;5074349;28;20053;-77
2021/12/15 02:55:28;;;;;;;64.45;21.63;;;7.50;99.90;;;;;;5073607;28;20050;-76
2021/12/15 02:57:56;;;;;;;61.53;18.10;;;7.50;99.90;;;;;;5074820;28;20048;-77
2021/12/15 03:00:27;;;;;;;57.55;22.50;;;7.40;99.90;;;;;;5074170;28;20128;-78
2021/12/15 03:03:43;;;;;;;55.78;20.30;;;7.50;99.90;;;;;;5074564;28;20136;-75
2021/12/15 03:06:11;;;;;;;52.63;17.15;;;7.50;99.90;;;;;;5073376;28;20049;-76
2021/12/15 03:08:53;;;;;;;;;;;7.40;99.90;;;;;;5074564;28;20083;-75
2021/12/15 03:16:54;;;;;;;47.78;20.02;;;7.50;99.90;;;;;;5074180;28;20052;-75
2021/12/15 03:19:21;;;;;;;50.65;18.63;;;7.50;99.90;;;;;;5073709;28;20041;-76
2021/12/15 03:21:48;;;;;;;54.22;20.77;;;7.50;99.90;;;;;;5074061;28;20044;-74
2021/12/15 03:24:19;;;;;;;54.35;20.38;;;7.40;99.90;;;;;;5073116;28;20048;-75
2021/12/15 03:26:56;;;;;;;57.13;21.48;;;7.50;99.90;;;;;;5073964;28;20059;-74
2021/12/15 03:35:20;;;;;;;44.08;17.48;;;7.50;99.90;;;;;;5072679;28;20044;-75
2021/12/15 03:37:57;;;;;;;47.78;18.58;;;7.50;99.90;;;;;;5073588;28;20412;-75
2021/12/15 03:40:27;;;;;;;49.60;18.23;;;7.50;99.90;;;;;;5073449;28;20452;-75
2021/12/15 03:42:59;;;;;;;51.53;19.33;;;7.50;99.90;;;;;;5073616;28;20044;-74
2021/12/15 03:45:28;;;;;;;;;;;7.50;99.90;;;;;;5073478;28;20087;-75
2021/12/15 03:48:00;;;;;;;54.70;18.50;;;7.50;99.90;;;;;;5073576;28;20011;-74
2021/12/15 03:50:28;;;;;;;50.42;19.13;;;7.50;99.90;;;;;;5073365;28;20052;-77
2021/12/15 03:52:56;;;;;;;53.95;18.48;;;7.50;99.90;;;;;;5072968;28;20101;-76
2021/12/15 03:55:29;;;;;;;50.45;18.35;;;7.50;99.90;;;;;;5072329;28;20072;-74
2021/12/15 03:57:58;;;;;;;56.90;17.30;;;7.50;99.90;;;;;;5073507;28;20464;-76
2021/12/15 04:00:27;;;;;;;56.80;18.58;;;7.50;99.90;;;;;;5073305;28;20044;-75
2021/12/15 04:02:55;;;;;;;45.15;17.08;;;7.50;99.90;;;;;;5072992;28;20567;-75
2021/12/15 04:05:22;;;;;;;50.42;19.25;;;7.50;99.90;;;;;;5072468;28;20080;-76
2021/12/15 04:07:51;;;;;;;59.72;20.52;;;7.50;99.90;;;;;;5072466;28;20481;-76
2021/12/15 04:10:21;;;;;;;49.90;18.50;;;7.50;99.90;;;;;;5073140;28;20064;-75
2021/12/15 04:12:48;;;;;;;53.10;20.25;;;7.40;99.90;;;;;;5072999;28;20129;-76
2021/12/15 04:15:27;;;;;;;47.95;16.85;;;7.40;99.90;;;;;;5072574;28;20404;-80
2021/12/15 04:17:56;;;;;;;44.10;15.82;;;7.50;99.90;;;;;;5072741;28;20044;-77
2021/12/15 04:20:25;;;;;;;45.10;16.63;;;7.50;99.90;;;;;;5072557;28;20052;-75
2021/12/15 04:22:52;;;;;;;42.63;17.55;;;7.50;99.90;;;;;;5072767;28;20076;-78
2021/12/15 04:25:22;;;;;;;40.53;18.20;;;7.50;99.90;;;;;;5071984;28;20067;-76
2021/12/15 04:27:56;;;;;;;48.42;15.25;;;7.40;99.90;;;;;;5072436;28;20044;-75
2021/12/15 04:30:26;;;;;;;44.40;18.77;;;7.40;99.90;;;;;;5072903;28;20468;-75
2021/12/15 04:32:55;;;;;;;51.28;19.00;;;7.40;99.90;;;;;;5072093;28;20059;-75
2021/12/15 04:35:22;;;;;;;44.30;17.67;;;7.40;99.90;;;;;;5072144;28;20044;-76
2021/12/15 04:37:51;;;;;;;45.67;16.90;;;7.40;99.90;;;;;;5072163;28;20094;-75
2021/12/15 04:40:20;;;;;;;50.20;16.77;;;7.40;99.90;;;;;;5072362;28;20048;-79
2021/12/15 04:42:47;;;;;;;49.15;15.95;;;7.40;99.90;;;;;;5072374;28;20056;-77
2021/12/15 04:45:16;;;;;;;44.55;16.70;;;7.40;99.90;;;;;;5071800;28;20051;-76
2021/12/15 04:47:45;;;;;;;41.20;18.65;;;7.40;99.90;;;;;;5072025;28;20060;-77
2021/12/15 04:50:12;;;;;;;40.47;15.80;;;7.30;99.90;;;;;;5072074;28;20044;-71
2021/12/15 04:52:40;;;;;;;43.78;16.13;;;7.30;99.90;;;;;;5072141;28;20385;-74
2021/12/15 04:55:08;;;;;;;38.95;15.35;;;7.40;99.90;;;;;;5071771;28;20052;-74
2021/12/15 04:57:35;;;;;;;42.88;15.80;;;7.40;99.90;;;;;;5071913;28;20045;-73
2021/12/15 05:00:04;;;;;;;50.72;17.98;;;7.30;99.90;;;;;;5071855;28;20047;-74
2021/12/15 05:02:31;;;;;;;36.92;14.77;;;7.40;99.90;;;;;;5072186;28;20044;-72
2021/12/15 05:05:00;;;;;;;39.67;15.40;;;7.40;99.90;;;;;;5071294;28;20237;-71
2021/12/15 05:07:27;;;;;;;45.85;15.95;;;7.40;99.90;;;;;;5072556;28;20048;-76
2021/12/15 05:09:55;;;;;;;42.85;14.77;;;7.40;99.90;;;;;;5084082;28;20044;-75
2021/12/15 05:12:22;;;;;;;38.85;16.08;;;7.40;99.90;;;;;;5077164;28;20220;-72
2021/12/15 05:14:50;;;;;;;38.42;14.73;;;7.40;99.90;;;;;;5073198;28;20121;-72
2021/12/15 05:17:17;;;;;;;40.25;16.90;;;7.30;99.90;;;;;;5072596;28;20106;-72
2021/12/15 05:19:46;;;;;;;37.38;14.70;;;7.30;99.90;;;;;;5072413;28;20047;-74
2021/12/15 05:22:15;;;;;;;38.33;15.00;;;7.30;99.90;;;;;;5074348;28;20100;-75
2021/12/15 05:24:43;;;;;;;39.70;16.35;;;7.30;99.90;;;;;;5073254;28;20068;-73
2021/12/15 05:27:12;;;;;;;44.17;16.42;;;7.30;99.90;;;;;;5073257;28;20045;-73
2021/12/15 05:29:41;;;;;;;46.28;17.17;;;7.30;99.90;;;;;;5074011;28;20113;-74
2021/12/15 05:32:09;;;;;;;37.38;15.70;;;7.30;99.90;;;;;;5072528;28;20079;-76
2021/12/15 05:34:37;;;;;;;37.55;17.02;;;7.30;99.90;;;;;;5073569;28;20075;-79
2021/12/15 05:37:05;;;;;;;39.15;15.45;;;7.30;99.90;;;;;;5071827;28;20055;-73
2021/12/15 05:39:34;;;;;;;36.47;15.50;;;7.40;99.90;;;;;;5072265;28;20048;-73
2021/12/15 05:42:01;;;;;;;46.28;16.13;;;7.30;99.90;;;;;;5072020;28;20098;-76
2021/12/15 05:44:29;;;;;;;35.55;13.48;;;7.30;99.90;;;;;;5071441;28;20460;-77
2021/12/15 05:46:58;;;;;;;49.25;17.17;;;7.30;99.90;;;;;;5073201;28;20045;-76
2021/12/15 05:49:25;;;;;;;41.97;16.45;;;7.30;99.90;;;;;;5072603;28;20044;-75
2021/12/15 05:51:53;;;;;;;35.60;14.07;;;7.30;99.90;;;;;;5072123;28;20106;-77
2021/12/15 05:54:20;;;;;;;40.35;14.93;;;7.30;99.90;;;;;;5070865;28;20412;-75
2021/12/15 05:56:49;;;;;;;29.50;12.82;;;7.30;99.90;;;;;;5071483;28;20048;-74
2021/12/15 05:59:18;;;;;;;37.20;16.00;;;7.30;99.90;;;;;;5071465;28;20499;-72
2021/12/15 06:01:45;;;;;;;42.42;15.57;;;7.30;99.90;;;;;;5071396;28;20143;-71
2021/12/15 06:04:13;;;;;;;38.10;15.68;;;7.30;99.90;;;;;;5070790;28;20068;-78
2021/12/15 06:06:41;;;;;;;36.10;16.30;;;7.30;99.90;;;;;;5071865;28;20083;-76
2021/12/15 06:09:10;;;;;;;41.13;16.25;;;7.30;99.90;;;;;;5071406;28;20044;-74
2021/12/15 06:11:37;;;;;;;40.42;15.98;;;7.30;99.90;;;;;;5072172;28;20045;-74
2021/12/15 06:14:06;;;;;;;45.78;14.25;;;7.30;99.90;;;;;;5071223;28;20103;-75
2021/12/15 06:16:34;;;;;;;28.23;14.77;;;7.30;99.90;;;;;;5071020;28;20069;-71
2021/12/15 06:19:04;;;;;;;29.63;14.70;;;7.30;99.90;;;;;;5072000;28;20044;-75
2021/12/15 06:21:34;;;;;;;41.17;16.95;;;7.30;99.90;;;;;;5075583;28;20106;-77
2021/12/15 06:24:01;;;;;;;36.70;14.32;;;7.40;99.90;;;;;;5074845;28;20067;-73
2021/12/15 06:26:28;;;;;;;30.65;12.38;;;7.30;99.90;;;;;;5074677;28;20052;-75
2021/12/15 06:28:55;;;;;;;26.02;12.07;;;7.40;99.90;;;;;;5075749;28;20072;-76
2021/12/15 06:31:24;;;;;;;31.95;13.45;;;7.30;99.90;;;;;;5075871;28;20098;-77
2021/12/15 06:33:51;;;;;;;38.45;15.55;;;7.30;99.90;;;;;;5075176;28;20127;-77
2021/12/15 06:36:20;;;;;;;32.53;13.85;;;7.30;99.90;;;;;;5074750;28;20052;-77
2021/12/15 06:38:49;;;;;;;36.45;14.50;;;7.30;99.90;;;;;;5077791;28;20090;-78
2021/12/15 06:41:17;;;;;;;30.08;13.07;;;7.30;99.90;;;;;;5078473;28;20067;-76
2021/12/15 06:43:49;;;;;;;38.58;14.88;;;7.30;99.90;;;;;;5074371;28;20140;-74
2021/12/15 06:46:40;;;;;;;36.80;14.82;;;7.30;99.90;;;;;;5073762;28;20052;-70
2021/12/15 07:00:16;;;;;;;31.80;15.70;;;7.40;99.90;;;;;;5038103;28;20090;-76
2021/12/15 07:02:43;;;;;;;39.13;15.30;;;7.30;99.90;;;;;;5074446;28;20048;-75
2021/12/15 07:05:13;;;;;;;34.95;15.80;;;7.40;99.90;;;;;;5073568;28;20048;-76
2021/12/15 07:07:42;;;;;;;33.35;14.20;;;7.40;99.90;;;;;;5074386;28;20082;-75
2021/12/15 07:10:11;;;;;;;34.15;16.33;;;7.40;99.90;;;;;;5074274;28;20512;-77
2021/12/15 07:12:38;;;;;;;33.05;13.23;;;7.40;99.90;;;;;;5074271;28;20048;-74
2021/12/15 07:15:07;;;;;;;31.08;13.45;;;7.30;99.90;;;;;;5073839;28;20505;-74
2021/12/15 07:17:36;;;;;;;28.45;12.90;;;7.40;99.90;;;;;;5075032;28;20051;-76
2021/12/15 07:20:08;;;;;;;37.92;16.75;;;7.40;99.90;;;;;;5074275;28;20044;-78
2021/12/15 07:22:43;;;;;;;;;;;7.40;99.90;;;;;;5074435;28;20044;-74
2021/12/15 07:25:12;;;;;;;33.90;13.43;;;7.40;99.90;;;;;;5073350;28;19924;-74
2021/12/15 07:27:39;;;;;;;32.38;13.68;;;7.40;99.90;;;;;;5073795;28;20041;-75
2021/12/15 07:30:08;;;;;;;30.15;13.18;;;7.40;99.90;;;;;;5073188;28;20071;-76
2021/12/15 07:32:35;;;;;;;29.42;12.93;;;7.40;99.90;;;;;;5073664;28;20048;-71
2021/12/15 07:35:02;;;;;;;30.48;13.32;;;7.40;99.90;;;;;;5073155;28;20098;-78
2021/12/15 07:37:29;;;;;;;38.15;14.40;;;7.50;99.90;;;;;;5073510;28;20139;-74
2021/12/15 07:39:59;;;;;;;25.13;14.48;;;7.40;99.90;;;;;;5073460;28;20072;-73
2021/12/15 07:42:34;;;;;;;32.92;15.70;;;7.40;99.90;;;;;;5073094;28;20052;-75
2021/12/15 07:45:01;;;;;;;30.38;13.13;;;7.40;99.90;;;;;;5073144;28;20049;-75
2021/12/15 07:47:29;;;;;;;35.03;14.02;;;7.40;99.90;;;;;;5073750;28;20072;-76
2021/12/15 07:49:59;;;;;;;28.75;14.25;;;7.40;99.90;;;;;;5074661;28;20067;-76
2021/12/15 07:52:26;;;;;;;28.40;13.15;;;7.40;99.90;;;;;;5073174;28;20041;-74
2021/12/15 07:54:53;;;;;;;33.78;13.45;;;7.40;99.90;;;;;;5072561;28;20114;-75
2021/12/15 07:57:28;;;;;;;27.77;12.23;;;7.40;99.90;;;;;;5073424;28;20048;-72
2021/12/15 07:59:56;;;;;;;21.52;10.93;;;7.50;99.90;;;;;;5073316;28;20472;-73
2021/12/15 08:02:24;;;;;;;26.85;11.70;;;7.40;99.90;;;;;;5073032;28;20053;-72
2021/12/15 08:04:51;;;;;;;27.20;13.00;;;7.50;99.90;;;;;;5072415;28;20051;-73
2021/12/15 08:07:18;;;;;;;28.80;12.27;;;7.50;99.90;;;;;;5072798;28;20045;-71
2021/12/15 08:09:45;;;;;;;33.60;14.43;;;7.50;99.90;;;;;;5072779;28;20114;-73
2021/12/15 08:12:12;;;;;;;30.45;13.48;;;7.50;99.90;;;;;;5072966;28;20122;-72
2021/12/15 08:14:41;;;;;;;23.15;12.05;;;7.50;99.90;;;;;;5072462;28;20045;-73
2021/12/15 08:17:08;;;;;;;34.88;13.63;;;7.50;99.90;;;;;;5072754;28;20045;-74
2021/12/15 08:19:35;;;;;;;26.30;10.85;;;7.50;99.90;;;;;;5072633;28;20114;-76
2021/12/15 08:22:02;;;;;;;27.10;14.32;;;7.50;99.90;;;;;;5072438;28;20048;-76
2021/12/15 08:24:29;;;;;;;30.17;13.77;;;7.60;99.90;;;;;;5071986;28;20048;-71
2021/12/15 08:26:56;;;;;;;27.38;12.35;;;7.60;99.90;;;;;;5072693;28;20044;-74
2021/12/15 08:29:23;;;;;;;32.30;14.35;;;7.60;99.90;;;;;;5072688;28;20118;-73
2021/12/15 08:31:52;;;;;;;30.55;12.73;;;7.60;99.90;;;;;;5073229;28;20054;-75
2021/12/15 08:34:19;;;;;;;20.70;11.02;;;7.70;99.90;;;;;;5072756;28;20416;-73
2021/12/15 08:36:50;;;;;;;25.30;13.43;;;7.70;99.90;;;;;;5072699;28;20048;-73
2021/12/15 08:39:20;;;;;;;23.55;11.50;;;7.80;99.90;;;;;;5072697;28;20060;-73
2021/12/15 08:41:48;;;;;;;25.95;12.30;;;7.80;99.90;;;;;;5071775;28;20144;-74
2021/12/15 08:44:15;;;;;;;29.70;12.00;;;7.80;99.90;;;;;;5071822;28;20101;-73
2021/12/15 08:46:45;;;;;;;21.10;11.10;;;7.80;99.90;;;;;;5072662;28;20044;-72
2021/12/15 08:49:16;;;;;;;25.95;11.68;;;7.80;99.90;;;;;;5072379;28;20127;-73
2021/12/15 08:51:44;;;;;;;;;;;7.80;99.90;;;;;;5073410;28;20139;-76
2021/12/15 08:54:14;;;;;;;20.95;10.32;;;7.80;99.90;;;;;;5075856;28;20291;-78
2021/12/15 08:56:42;;;;;;;22.00;10.70;;;7.70;99.90;;;;;;5075593;28;20048;-78
2021/12/15 08:59:11;;;;;;;25.25;12.68;;;7.80;99.90;;;;;;5075044;28;20408;-76
2021/12/15 09:01:38;;;;;;;20.23;9.73;;;7.80;99.90;;;;;;5072681;28;20098;-77
2021/12/15 09:04:05;;;;;;;25.00;11.52;;;7.80;99.90;;;;;;5072548;28;20049;-74
2021/12/15 09:06:38;;;;;;;25.05;11.60;;;7.80;99.90;;;;;;5072781;28;20040;-79
2021/12/15 09:09:07;;;;;;;24.17;11.23;;;7.80;99.90;;;;;;5073317;28;20447;-75
2021/12/15 09:11:34;;;;;;;24.95;12.18;;;7.80;99.90;;;;;;5073409;28;20049;-74
2021/12/15 09:14:03;;;;;;;21.52;10.63;;;7.80;99.90;;;;;;5072496;28;20052;-73
2021/12/15 09:16:32;;;;;;;22.90;10.25;;;7.90;99.90;;;;;;5072538;28;20048;-72
2021/12/15 09:19:00;;;;;;;23.95;11.63;;;7.90;99.90;;;;;;5072444;28;20055;-72
2021/12/15 09:21:30;;;;;;;25.23;11.85;;;7.90;99.90;;;;;;5072395;28;20309;-72
2021/12/15 09:24:00;;;;;;;24.60;11.98;;;7.90;99.90;;;;;;5071616;28;20052;-73
2021/12/15 09:26:28;;;;;;;22.27;11.05;;;7.80;99.90;;;;;;5071391;28;20068;-74
2021/12/15 09:28:55;;;;;;;25.33;11.48;;;7.80;99.90;;;;;;5071592;28;20044;-74
2021/12/15 09:31:22;;;;;;;17.92;10.52;;;7.80;99.90;;;;;;5071599;28;20044;-76
2021/12/15 09:34:02;;;;;;;23.13;10.95;;;7.90;99.90;;;;;;5071697;28;20501;-76
2021/12/15 09:36:29;;;;;;;24.23;11.38;;;7.90;99.90;;;;;;5071686;28;20416;-76
2021/12/15 09:39:04;;;;;;;24.48;11.43;;;7.90;99.90;;;;;;5071572;28;20045;-75
2021/12/15 09:41:31;;;;;;;23.35;10.93;;;7.90;99.90;;;;;;5071795;28;20055;-74
2021/12/15 09:44:05;;;;;;;25.75;12.07;;;7.90;99.90;;;;;;5071470;28;20048;-76
2021/12/15 09:46:39;;;;;;;21.95;10.45;;;8.00;99.90;;;;;;5071759;28;20046;-73
2021/12/15 09:57:30;;;;;;;22.42;10.02;;;8.00;99.90;;;;;;5075599;28;20048;-76
2021/12/15 10:02:56;;;;;;;23.20;10.57;;;7.90;99.90;;;;;;5075700;28;20421;-74
2021/12/15 10:05:48;;;;;;;19.38;9.60;;;7.90;99.90;;;;;;5075176;28;20131;-74
2021/12/15 10:11:44;;;;;;;23.15;12.57;;;8.10;99.90;;;;;;5076599;28;20562;-75
2021/12/15 10:17:33;;;;;;;20.60;10.23;;;8.10;99.90;;;;;;5075653;28;20127;-74
2021/12/15 10:20:04;;;;;;;20.63;10.07;;;8.10;99.90;;;;;;5075548;28;20102;-72
2021/12/15 10:22:38;;;;;;;20.92;11.38;;;8.20;99.90;;;;;;5075223;28;20102;-76
2021/12/15 10:25:12;;;;;;;17.10;9.43;;;8.20;99.90;;;;;;5074549;28;20132;-74
2021/12/15 10:27:44;;;;;;;22.45;10.00;;;8.20;99.90;;;;;;5075198;28;20279;-75
2021/12/15 10:30:21;;;;;;;18.67;10.65;;;8.20;99.90;;;;;;5074897;28;20053;-76
2021/12/15 10:32:53;;;;;;;17.90;9.50;;;8.30;99.90;;;;;;5074873;28;20049;-76
2021/12/15 10:35:22;;;;;;;19.73;9.38;;;8.30;99.90;;;;;;5075277;28;20076;-71
2021/12/15 10:38:15;;;;;;;19.83;10.35;;;8.30;99.90;;;;;;5076017;28;20053;-72
2021/12/15 10:40:44;;;;;;;18.27;9.07;;;8.40;99.90;;;;;;5074980;28;20504;-73
2021/12/15 10:43:13;;;;;;;20.10;9.63;;;8.40;99.90;;;;;;5074779;28;20165;-70
2021/12/15 10:45:43;;;;;;;19.55;11.07;;;8.40;99.90;;;;;;5073978;28;20068;-72
2021/12/15 10:48:20;;;;;;;22.83;9.85;;;8.40;99.90;;;;;;5074485;28;20102;-72
2021/12/15 10:50:49;;;;;;;20.67;11.30;;;8.40;99.90;;;;;;5074416;28;20485;-74
2021/12/15 10:53:31;;;;;;;19.63;9.63;;;8.40;99.90;;;;;;5074397;28;20051;-74
2021/12/15 10:55:58;;;;;;;20.73;10.48;;;8.50;99.90;;;;;;5073968;28;20520;-74
2021/12/15 10:58:37;;;;;;;19.52;9.75;;;8.50;99.90;;;;;;5074260;28;20558;-75
2021/12/15 11:01:26;;;;;;;21.75;10.95;;;8.50;99.90;;;;;;5074380;28;20048;-76
2021/12/15 11:03:53;;;;;;;22.38;11.05;;;8.50;99.90;;;;;;5073797;28;20076;-72
2021/12/15 11:06:22;;;;;;;16.70;8.88;;;8.50;99.90;;;;;;5073083;28;20076;-73
2021/12/15 11:09:09;;;;;;;20.80;9.80;;;8.60;99.90;;;;;;5074021;28;20044;-72
2021/12/15 11:11:36;;;;;;;21.15;9.77;;;8.60;99.90;;;;;;5074285;28;20040;-72
2021/12/15 11:14:23;;;;;;;18.88;10.30;;;8.60;99.90;;;;;;5073527;28;20469;-73
2021/12/15 11:17:06;;;;;;;18.88;10.57;;;8.70;99.90;;;;;;5073926;28;20451;-73
2021/12/15 11:19:42;;;;;;;20.13;11.38;;;8.60;99.90;;;;;;5073854;28;20101;-75
2021/12/15 11:22:31;;;;;;;20.45;10.27;;;8.70;99.90;;;;;;5073895;28;20087;-73
2021/12/15 11:24:59;;;;;;;23.17;9.63;;;8.60;99.90;;;;;;5073041;28;20045;-73
2021/12/15 11:27:26;;;;;;;21.08;11.02;;;8.70;99.90;;;;;;5073597;28;20123;-73
2021/12/15 11:29:54;;;;;;;23.50;12.13;;;8.60;99.90;;;;;;5073801;28;20044;-73
2021/12/15 11:32:41;;;;;;;21.15;10.00;;;8.70;99.90;;;;;;5073821;28;20143;-76
2021/12/15 11:35:11;;;;;;;20.75;10.80;;;8.70;99.90;;;;;;5073055;28;20507;-75
2021/12/15 11:37:47;;;;;;;19.58;9.88;;;8.80;99.90;;;;;;5073408;28;20044;-75
2021/12/15 11:40:15;;;;;;;21.95;9.15;;;8.80;99.90;;;;;;5073534;28;20062;-74
2021/12/15 11:42:45;;;;;;;21.13;9.00;;;8.90;99.90;;;;;;5073656;28;20114;-76
2021/12/15 11:45:14;;;;;;;24.05;10.80;;;8.90;99.90;;;;;;5072813;28;20131;-74
2021/12/15 11:47:42;;;;;;;16.63;9.18;;;8.90;99.90;;;;;;5073458;28;20080;-76
2021/12/15 11:50:12;;;;;;;17.17;9.15;;;8.90;99.90;;;;;;5073501;28;20052;-73
2021/12/15 11:52:42;;;;;;;17.98;8.90;;;9.00;99.90;;;;;;5073935;28;20129;-73
2021/12/15 11:55:23;;;;;;;17.65;9.27;;;9.00;99.90;;;;;;5074517;28;20044;-73
2021/12/15 11:57:50;;;;;;;19.02;9.48;;;9.00;99.90;;;;;;5073593;28;20135;-73
2021/12/15 12:00:23;;;;;;;16.27;9.43;;;9.00;99.90;;;;;;5075272;28;20417;-73
2021/12/15 12:02:54;;;;;;;15.10;9.35;;;9.10;99.90;;;;;;5074578;28;20048;-74
2021/12/15 12:05:31;;;;;;;16.85;8.60;;;9.10;99.90;;;;;;5076389;28;20386;-75
2021/12/15 12:08:02;;;;;;;19.55;10.55;;;9.20;99.90;;;;;;5075920;28;20520;-73
2021/12/15 12:10:33;;;;;;;15.73;8.75;;;9.20;99.90;;;;;;5073395;28;20048;-71
2021/12/15 12:13:06;;;;;;;18.70;9.70;;;9.20;99.90;;;;;;5072928;28;20040;-71
2021/12/15 12:15:37;;;;;;;18.25;8.85;;;9.20;99.90;;;;;;5072378;28;20055;-72
2021/12/15 12:18:07;;;;;;;14.75;8.98;;;9.20;99.90;;;;;;5073345;28;20050;-72
2021/12/15 12:20:37;;;;;;;15.80;8.63;;;9.20;99.90;;;;;;5073032;28;20040;-74
2021/12/15 12:23:06;;;;;;;15.65;8.52;;;9.20;99.90;;;;;;5072922;28;20052;-74
2021/12/15 12:25:38;;;;;;;16.50;9.60;;;9.20;99.90;;;;;;5072186;28;20048;-73
2021/12/15 12:28:07;;;;;;;12.48;8.13;;;9.30;99.90;;;;;;5072683;28;20477;-72
2021/12/15 12:30:39;;;;;;;16.23;8.82;;;9.30;99.90;;;;;;5072814;28;20135;-71
2021/12/15 12:33:09;;;;;;;;;;;9.40;99.90;;;;;;5073455;28;20475;-74
2021/12/15 12:35:39;;;;;;;16.50;8.82;;;9.50;99.90;;;;;;5072097;28;19928;-73
2021/12/15 12:38:11;;;;;;;15.63;10.20;;;9.70;99.90;;;;;;5072892;28;20064;-73
2021/12/15 12:40:46;;;;;;;15.98;8.13;;;9.60;99.90;;;;;;5073195;28;20705;-74
2021/12/15 12:43:18;;;;;;;17.30;7.97;;;9.60;99.90;;;;;;5072783;28;20516;-71
2021/12/15 12:45:52;;;;;;;;;;;9.60;99.90;;;;;;5073025;28;20049;-71
2021/12/15 12:48:36;;;;;;;13.50;7.82;;;9.60;99.90;;;;;;5074092;28;19943;-75
2021/12/15 12:59:58;;;;;;;13.05;8.38;;;9.50;99.90;;;;;;5073433;28;20055;-78
2021/12/15 13:02:46;;;;;;;18.23;11.13;;;9.50;99.90;;;;;;5072296;28;20405;-84
2021/12/15 13:05:34;;;;;;;11.15;7.20;;;9.60;99.90;;;;;;5073461;28;20048;-76
2021/12/15 13:08:04;;;;;;;9.93;7.22;;;9.50;99.90;;;;;;5072777;28;20045;-76
2021/12/15 13:10:52;;;;;;;10.77;7.70;;;9.50;99.90;;;;;;5072213;28;20052;-76
2021/12/15 13:13:22;;;;;;;11.38;7.00;;;9.50;99.90;;;;;;5072419;28;20049;-73
2021/12/15 13:15:53;;;;;;;12.35;7.40;;;9.40;99.90;;;;;;5072540;28;20493;-75
2021/12/15 13:18:21;;;;;;;9.95;6.60;;;9.40;99.90;;;;;;5073248;28;20102;-73
2021/12/15 13:20:56;;;;;;;12.63;7.35;;;9.40;99.90;;;;;;5071719;28;20106;-71
2021/12/15 13:23:40;;;;;;;9.77;6.13;;;9.40;99.90;;;;;;5072355;28;20056;-72
2021/12/15 13:28:53;;;;;;;12.43;7.38;;;9.40;99.90;;;;;;5071576;28;20063;-75
2021/12/15 13:31:22;;;;;;;10.32;6.85;;;9.40;99.90;;;;;;5071937;28;20045;-75
2021/12/15 13:33:52;;;;;;;9.23;6.45;;;9.40;99.90;;;;;;5071932;28;20416;-74
2021/12/15 13:36:21;;;;;;;12.52;7.40;;;9.40;99.90;;;;;;5071402;28;20528;-74
2021/12/15 13:38:52;;;;;;;9.77;6.55;;;9.30;99.90;;;;;;5071704;28;20045;-75
2021/12/15 13:41:26;;;;;;;14.43;8.07;;;9.40;99.90;;;;;;5071881;28;20040;-75
2021/12/15 13:44:05;;;;;;;25.00;12.07;;;9.30;99.90;;;;;;5071506;28;20048;-73
2021/12/15 13:46:38;;;;;;;23.95;13.05;;;9.40;99.90;;;;;;5071808;28;20314;-75
2021/12/15 13:49:17;;;;;;;22.25;12.30;;;9.40;99.90;;;;;;5071515;28;20047;-72
2021/12/15 13:52:11;;;;;;;14.95;10.02;;;9.50;99.90;;;;;;5071833;28;20044;-75
2021/12/15 13:55:06;;;;;;;14.40;8.77;;;9.40;99.90;;;;;;5072378;28;20493;-73
2021/12/15 13:57:37;;;;;;;15.55;8.20;;;9.40;99.90;;;;;;5071839;28;20097;-75
2021/12/15 14:00:16;;;;;;;9.25;6.68;;;9.40;99.90;;;;;;5071710;28;20048;-74